sensor_id;sensor_type;location;lat;lon;timestamp;pressure;altitude;pressure_sealevel;temperature;humidity
55538;BME280;41383;51.418;7.286;2023-04-06T00:00:05;100076.31;;;5.20;51.33
55538;BME280;41383;51.418;7.286;2023-04-06T00:02:32;100078.59;;;5.17;51.18
55538;BME280;41383;51.418;7.286;2023-04-06T00:04:58;100079.72;;;5.09;51.34
55538;BME280;41383;51.418;7.286;2023-04-06T00:07:23;100082.81;;;5.12;51.32
55538;BME280;41383;51.418;7.286;2023-04-06T00:09:48;100071.44;;;5.04;51.39
55538;BME280;41383;51.418;7.286;2023-04-06T00:12:13;100074.16;;;5.04;51.77
55538;BME280;41383;51.418;7.286;2023-04-06T00:14:39;100076.50;;;4.93;51.50
55538;BME280;41383;51.418;7.286;2023-04-06T00:17:05;100070.72;;;4.89;52.12
55538;BME280;41383;51.418;7.286;2023-04-06T00:19:30;100068.63;;;4.92;52.15
55538;BME280;41383;51.418;7.286;2023-04-06T00:21:56;100067.75;;;4.98;52.11
55538;BME280;41383;51.418;7.286;2023-04-06T00:24:21;100073.31;;;4.77;52.64
55538;BME280;41383;51.418;7.286;2023-04-06T00:26:46;100069.63;;;4.97;51.69
55538;BME280;41383;51.418;7.286;2023-04-06T00:29:12;100061.34;;;4.92;52.00
55538;BME280;41383;51.418;7.286;2023-04-06T00:31:37;100059.53;;;4.86;52.15
55538;BME280;41383;51.418;7.286;2023-04-06T00:34:02;100056.88;;;5.05;52.10
55538;BME280;41383;51.418;7.286;2023-04-06T00:36:27;100058.25;;;5.14;51.68
55538;BME280;41383;51.418;7.286;2023-04-06T00:38:53;100050.50;;;5.24;51.79
55538;BME280;41383;51.418;7.286;2023-04-06T00:41:18;100052.50;;;5.29;51.52
55538;BME280;41383;51.418;7.286;2023-04-06T00:43:43;100044.38;;;5.29;51.65
55538;BME280;41383;51.418;7.286;2023-04-06T00:46:08;100039.16;;;5.34;51.64
55538;BME280;41383;51.418;7.286;2023-04-06T00:48:34;100033.16;;;5.32;50.83
55538;BME280;41383;51.418;7.286;2023-04-06T00:51:00;100030.81;;;5.36;50.93
55538;BME280;41383;51.418;7.286;2023-04-06T00:53:25;100029.88;;;5.49;50.41
55538;BME280;41383;51.418;7.286;2023-04-06T00:55:51;100029.09;;;5.60;49.61
55538;BME280;41383;51.418;7.286;2023-04-06T00:58:16;100028.66;;;5.64;49.86
55538;BME280;41383;51.418;7.286;2023-04-06T01:00:42;100022.94;;;5.72;49.39
55538;BME280;41383;51.418;7.286;2023-04-06T01:03:07;100022.88;;;5.79;49.08
55538;BME280;41383;51.418;7.286;2023-04-06T01:05:34;100027.16;;;5.87;48.81
55538;BME280;41383;51.418;7.286;2023-04-06T01:08:00;100020.22;;;5.91;48.68
55538;BME280;41383;51.418;7.286;2023-04-06T01:10:26;100011.88;;;5.92;48.33
55538;BME280;41383;51.418;7.286;2023-04-06T01:12:52;100013.91;;;5.97;48.18
55538;BME280;41383;51.418;7.286;2023-04-06T01:15:17;100003.44;;;6.01;47.01
55538;BME280;41383;51.418;7.286;2023-04-06T01:17:43;100005.47;;;6.05;47.41
55538;BME280;41383;51.418;7.286;2023-04-06T01:20:08;100006.75;;;6.03;47.44
55538;BME280;41383;51.418;7.286;2023-04-06T01:22:33;100004.63;;;6.05;47.03
55538;BME280;41383;51.418;7.286;2023-04-06T01:24:59;100003.88;;;6.16;47.18
55538;BME280;41383;51.418;7.286;2023-04-06T01:27:24;99998.63;;;6.22;46.66
55538;BME280;41383;51.418;7.286;2023-04-06T01:29:51;100002.38;;;6.21;46.84
55538;BME280;41383;51.418;7.286;2023-04-06T01:32:16;99992.09;;;6.11;46.86
55538;BME280;41383;51.418;7.286;2023-04-06T01:34:41;99982.75;;;6.25;46.53
55538;BME280;41383;51.418;7.286;2023-04-06T01:37:07;99992.00;;;6.17;46.66
55538;BME280;41383;51.418;7.286;2023-04-06T01:39:32;99990.81;;;6.13;47.19
55538;BME280;41383;51.418;7.286;2023-04-06T01:41:57;99986.31;;;6.07;47.46
55538;BME280;41383;51.418;7.286;2023-04-06T01:44:23;99975.03;;;6.10;47.18
55538;BME280;41383;51.418;7.286;2023-04-06T01:46:48;99981.97;;;6.06;46.72
55538;BME280;41383;51.418;7.286;2023-04-06T01:49:13;99985.53;;;6.18;47.39
55538;BME280;41383;51.418;7.286;2023-04-06T01:51:38;99988.97;;;6.26;47.07
55538;BME280;41383;51.418;7.286;2023-04-06T01:54:04;99991.41;;;6.15;47.22
55538;BME280;41383;51.418;7.286;2023-04-06T01:56:29;99981.88;;;5.94;47.49
55538;BME280;41383;51.418;7.286;2023-04-06T01:58:54;99990.16;;;5.99;47.50
55538;BME280;41383;51.418;7.286;2023-04-06T02:01:20;99984.00;;;5.92;47.25
55538;BME280;41383;51.418;7.286;2023-04-06T02:03:46;99980.00;;;5.94;47.69
55538;BME280;41383;51.418;7.286;2023-04-06T02:06:11;99981.75;;;6.07;47.06
55538;BME280;41383;51.418;7.286;2023-04-06T02:08:36;99972.94;;;5.93;47.20
55538;BME280;41383;51.418;7.286;2023-04-06T02:11:01;99976.63;;;5.99;47.57
55538;BME280;41383;51.418;7.286;2023-04-06T02:13:27;99979.28;;;6.06;47.48
55538;BME280;41383;51.418;7.286;2023-04-06T02:15:52;99979.28;;;6.06;47.02
55538;BME280;41383;51.418;7.286;2023-04-06T02:18:17;99975.19;;;5.96;47.27
55538;BME280;41383;51.418;7.286;2023-04-06T02:20:43;99975.94;;;6.04;47.56
55538;BME280;41383;51.418;7.286;2023-04-06T02:23:09;99975.50;;;6.07;47.67
55538;BME280;41383;51.418;7.286;2023-04-06T02:25:34;99968.44;;;6.06;47.44
55538;BME280;41383;51.418;7.286;2023-04-06T02:28:00;99977.16;;;6.08;47.37
55538;BME280;41383;51.418;7.286;2023-04-06T02:30:25;99974.34;;;6.15;47.64
55538;BME280;41383;51.418;7.286;2023-04-06T02:32:50;99971.63;;;6.15;47.83
55538;BME280;41383;51.418;7.286;2023-04-06T02:35:16;99967.53;;;5.93;47.92
55538;BME280;41383;51.418;7.286;2023-04-06T02:37:41;99973.84;;;6.06;48.46
55538;BME280;41383;51.418;7.286;2023-04-06T02:40:07;99971.56;;;6.03;48.48
55538;BME280;41383;51.418;7.286;2023-04-06T02:42:32;99967.88;;;5.97;48.76
55538;BME280;41383;51.418;7.286;2023-04-06T02:44:58;99973.53;;;5.95;48.67
55538;BME280;41383;51.418;7.286;2023-04-06T02:47:23;99966.47;;;5.76;49.02
55538;BME280;41383;51.418;7.286;2023-04-06T02:49:48;99971.97;;;5.88;49.28
55538;BME280;41383;51.418;7.286;2023-04-06T02:52:13;99969.28;;;5.88;49.14
55538;BME280;41383;51.418;7.286;2023-04-06T02:54:39;99963.88;;;5.88;49.57
55538;BME280;41383;51.418;7.286;2023-04-06T02:57:04;99958.97;;;5.78;49.58
55538;BME280;41383;51.418;7.286;2023-04-06T02:59:30;99958.41;;;5.57;50.13
55538;BME280;41383;51.418;7.286;2023-04-06T03:01:55;99959.31;;;5.69;49.71
55538;BME280;41383;51.418;7.286;2023-04-06T03:04:21;99954.38;;;5.78;49.55
55538;BME280;41383;51.418;7.286;2023-04-06T03:06:47;99957.69;;;5.80;49.14
55538;BME280;41383;51.418;7.286;2023-04-06T03:09:13;99957.94;;;5.79;48.97
55538;BME280;41383;51.418;7.286;2023-04-06T03:11:39;99954.16;;;5.80;49.40
55538;BME280;41383;51.418;7.286;2023-04-06T03:14:04;99956.72;;;5.75;49.09
55538;BME280;41383;51.418;7.286;2023-04-06T03:16:30;99951.94;;;5.58;49.23
55538;BME280;41383;51.418;7.286;2023-04-06T03:18:55;99947.88;;;5.67;48.46
55538;BME280;41383;51.418;7.286;2023-04-06T03:21:21;99959.66;;;5.73;48.94
55538;BME280;41383;51.418;7.286;2023-04-06T03:23:46;99951.59;;;5.85;48.93
55538;BME280;41383;51.418;7.286;2023-04-06T03:26:11;99958.66;;;5.86;49.65
55538;BME280;41383;51.418;7.286;2023-04-06T03:28:36;99957.03;;;5.85;49.29
55538;BME280;41383;51.418;7.286;2023-04-06T03:31:02;99956.38;;;5.71;49.17
55538;BME280;41383;51.418;7.286;2023-04-06T03:33:27;99953.97;;;5.63;49.19
55538;BME280;41383;51.418;7.286;2023-04-06T03:35:53;99959.44;;;5.75;49.11
55538;BME280;41383;51.418;7.286;2023-04-06T03:38:18;99953.72;;;5.64;48.58
55538;BME280;41383;51.418;7.286;2023-04-06T03:40:44;99966.34;;;5.70;48.79
55538;BME280;41383;51.418;7.286;2023-04-06T03:43:09;99959.91;;;5.71;48.96
55538;BME280;41383;51.418;7.286;2023-04-06T03:45:34;99958.38;;;5.76;47.98
55538;BME280;41383;51.418;7.286;2023-04-06T03:48:00;99962.97;;;5.75;47.86
55538;BME280;41383;51.418;7.286;2023-04-06T03:50:25;99960.69;;;5.91;48.40
55538;BME280;41383;51.418;7.286;2023-04-06T03:52:51;99962.44;;;5.85;48.39
55538;BME280;41383;51.418;7.286;2023-04-06T03:55:16;99956.69;;;5.93;48.16
55538;BME280;41383;51.418;7.286;2023-04-06T03:57:41;99956.81;;;5.99;48.38
55538;BME280;41383;51.418;7.286;2023-04-06T04:00:07;99955.66;;;5.76;48.35
55538;BME280;41383;51.418;7.286;2023-04-06T04:02:32;99963.47;;;5.84;47.94
55538;BME280;41383;51.418;7.286;2023-04-06T04:04:58;99958.34;;;5.94;48.24
55538;BME280;41383;51.418;7.286;2023-04-06T04:07:23;99958.44;;;5.88;47.87
55538;BME280;41383;51.418;7.286;2023-04-06T04:09:48;99962.56;;;5.90;47.86
55538;BME280;41383;51.418;7.286;2023-04-06T04:12:13;99964.06;;;5.86;47.80
55538;BME280;41383;51.418;7.286;2023-04-06T04:14:40;99961.53;;;5.91;48.16
55538;BME280;41383;51.418;7.286;2023-04-06T04:17:05;99962.44;;;5.85;48.09
55538;BME280;41383;51.418;7.286;2023-04-06T04:19:30;99948.97;;;5.78;47.59
55538;BME280;41383;51.418;7.286;2023-04-06T04:21:56;99955.66;;;5.76;47.24
55538;BME280;41383;51.418;7.286;2023-04-06T04:24:21;99959.75;;;5.66;47.39
55538;BME280;41383;51.418;7.286;2023-04-06T04:26:46;99957.38;;;5.89;47.16
55538;BME280;41383;51.418;7.286;2023-04-06T04:29:11;99961.66;;;5.96;47.49
55538;BME280;41383;51.418;7.286;2023-04-06T04:31:37;99953.41;;;5.91;46.95
55538;BME280;41383;51.418;7.286;2023-04-06T04:34:02;99960.91;;;5.89;47.20
55538;BME280;41383;51.418;7.286;2023-04-06T04:36:28;99950.69;;;5.91;47.79
55538;BME280;41383;51.418;7.286;2023-04-06T04:38:54;99949.94;;;5.84;47.23
55538;BME280;41383;51.418;7.286;2023-04-06T04:41:19;99951.38;;;5.87;47.36
55538;BME280;41383;51.418;7.286;2023-04-06T04:43:45;99953.84;;;5.88;47.29
55538;BME280;41383;51.418;7.286;2023-04-06T04:46:10;99947.34;;;5.77;46.84
55538;BME280;41383;51.418;7.286;2023-04-06T04:48:36;99942.97;;;5.76;47.10
55538;BME280;41383;51.418;7.286;2023-04-06T04:51:01;99949.00;;;5.59;46.92
55538;BME280;41383;51.418;7.286;2023-04-06T04:53:27;99944.72;;;5.70;47.59
55538;BME280;41383;51.418;7.286;2023-04-06T04:55:52;99944.25;;;5.73;46.80
55538;BME280;41383;51.418;7.286;2023-04-06T04:58:17;99944.03;;;5.75;46.43
55538;BME280;41383;51.418;7.286;2023-04-06T05:00:44;99948.97;;;5.78;46.07
55538;BME280;41383;51.418;7.286;2023-04-06T05:03:16;99948.72;;;5.99;45.97
55538;BME280;41383;51.418;7.286;2023-04-06T05:05:42;99950.38;;;6.00;45.94
55538;BME280;41383;51.418;7.286;2023-04-06T05:08:08;99948.25;;;6.02;46.60
55538;BME280;41383;51.418;7.286;2023-04-06T05:10:34;99943.25;;;5.87;46.43
55538;BME280;41383;51.418;7.286;2023-04-06T05:12:59;99944.53;;;5.84;46.19
55538;BME280;41383;51.418;7.286;2023-04-06T05:15:25;99940.50;;;5.75;46.04
55538;BME280;41383;51.418;7.286;2023-04-06T05:17:50;99943.00;;;5.88;46.01
55538;BME280;41383;51.418;7.286;2023-04-06T05:20:15;99949.63;;;5.92;46.32
55538;BME280;41383;51.418;7.286;2023-04-06T05:22:41;99947.84;;;5.86;46.96
55538;BME280;41383;51.418;7.286;2023-04-06T05:25:06;99947.72;;;5.81;46.81
55538;BME280;41383;51.418;7.286;2023-04-06T05:27:31;99936.66;;;5.64;46.15
55538;BME280;41383;51.418;7.286;2023-04-06T05:29:57;99938.19;;;5.59;46.53
55538;BME280;41383;51.418;7.286;2023-04-06T05:32:22;99941.03;;;5.65;45.75
55538;BME280;41383;51.418;7.286;2023-04-06T05:34:49;99941.69;;;5.79;45.83
55538;BME280;41383;51.418;7.286;2023-04-06T05:37:15;99940.78;;;5.85;45.80
55538;BME280;41383;51.418;7.286;2023-04-06T05:39:40;99943.06;;;6.00;45.76
55538;BME280;41383;51.418;7.286;2023-04-06T05:42:06;99938.66;;;6.06;45.31
55538;BME280;41383;51.418;7.286;2023-04-06T05:44:31;99944.97;;;6.00;44.97
55538;BME280;41383;51.418;7.286;2023-04-06T05:46:56;99941.66;;;5.98;45.65
55538;BME280;41383;51.418;7.286;2023-04-06T05:49:22;99936.44;;;5.96;45.18
55538;BME280;41383;51.418;7.286;2023-04-06T05:51:47;99944.44;;;5.91;45.02
55538;BME280;41383;51.418;7.286;2023-04-06T05:54:12;99940.94;;;6.02;44.90
55538;BME280;41383;51.418;7.286;2023-04-06T05:56:37;99943.00;;;6.07;44.64
55538;BME280;41383;51.418;7.286;2023-04-06T05:59:03;99943.28;;;6.17;45.74
55538;BME280;41383;51.418;7.286;2023-04-06T06:01:28;99945.66;;;6.26;45.55
55538;BME280;41383;51.418;7.286;2023-04-06T06:03:54;99948.72;;;6.29;45.05
55538;BME280;41383;51.418;7.286;2023-04-06T06:06:19;99954.09;;;6.17;45.22
55538;BME280;41383;51.418;7.286;2023-04-06T06:08:45;99948.13;;;6.27;45.18
55538;BME280;41383;51.418;7.286;2023-04-06T06:11:11;99944.59;;;6.27;44.53
55538;BME280;41383;51.418;7.286;2023-04-06T06:13:36;99946.94;;;6.23;44.93
55538;BME280;41383;51.418;7.286;2023-04-06T06:16:01;99942.34;;;6.24;45.51
55538;BME280;41383;51.418;7.286;2023-04-06T06:18:30;99943.34;;;6.41;45.51
55538;BME280;41383;51.418;7.286;2023-04-06T06:20:55;99945.09;;;6.36;44.65
55538;BME280;41383;51.418;7.286;2023-04-06T06:23:20;99944.06;;;6.49;45.25
55538;BME280;41383;51.418;7.286;2023-04-06T06:25:46;99945.69;;;6.38;45.13
55538;BME280;41383;51.418;7.286;2023-04-06T06:28:11;99936.88;;;6.42;44.87
55538;BME280;41383;51.418;7.286;2023-04-06T06:30:36;99941.56;;;6.47;44.59
55538;BME280;41383;51.418;7.286;2023-04-06T06:33:02;99940.63;;;6.41;44.71
55538;BME280;41383;51.418;7.286;2023-04-06T06:35:28;99933.44;;;6.35;44.62
55538;BME280;41383;51.418;7.286;2023-04-06T06:37:53;99948.75;;;6.53;44.72
55538;BME280;41383;51.418;7.286;2023-04-06T06:40:19;99941.94;;;6.51;44.64
55538;BME280;41383;51.418;7.286;2023-04-06T06:42:45;99947.94;;;6.53;44.52
55538;BME280;41383;51.418;7.286;2023-04-06T06:45:10;99943.34;;;6.53;44.70
55538;BME280;41383;51.418;7.286;2023-04-06T06:47:35;99946.19;;;6.47;44.61
55538;BME280;41383;51.418;7.286;2023-04-06T06:50:01;99945.72;;;6.50;44.75
55538;BME280;41383;51.418;7.286;2023-04-06T06:52:28;99940.63;;;6.41;45.34
55538;BME280;41383;51.418;7.286;2023-04-06T06:54:53;99933.84;;;6.63;44.72
55538;BME280;41383;51.418;7.286;2023-04-06T06:57:19;99941.00;;;6.57;44.78
55538;BME280;41383;51.418;7.286;2023-04-06T06:59:44;99938.28;;;6.57;44.34
55538;BME280;41383;51.418;7.286;2023-04-06T07:02:10;99944.34;;;6.83;44.96
55538;BME280;41383;51.418;7.286;2023-04-06T07:04:35;99941.16;;;6.86;45.07
55538;BME280;41383;51.418;7.286;2023-04-06T07:07:00;99927.34;;;7.00;44.96
55538;BME280;41383;51.418;7.286;2023-04-06T07:09:26;99946.09;;;7.02;44.88
55538;BME280;41383;51.418;7.286;2023-04-06T07:11:51;99938.75;;;7.14;45.16
55538;BME280;41383;51.418;7.286;2023-04-06T07:14:17;99934.28;;;7.20;44.72
55538;BME280;41383;51.418;7.286;2023-04-06T07:16:42;99940.09;;;7.11;44.65
55538;BME280;41383;51.418;7.286;2023-04-06T07:19:10;99929.13;;;6.82;45.11
55538;BME280;41383;51.418;7.286;2023-04-06T07:21:35;99929.47;;;6.98;44.60
55538;BME280;41383;51.418;7.286;2023-04-06T07:24:01;99930.06;;;6.88;44.71
55538;BME280;41383;51.418;7.286;2023-04-06T07:26:26;99926.53;;;7.11;44.52
55538;BME280;41383;51.418;7.286;2023-04-06T07:28:52;99930.41;;;7.16;44.08
55538;BME280;41383;51.418;7.286;2023-04-06T07:31:17;99926.34;;;7.30;44.74
55538;BME280;41383;51.418;7.286;2023-04-06T07:33:42;99930.16;;;7.29;44.15
55538;BME280;41383;51.418;7.286;2023-04-06T07:36:08;99927.06;;;7.38;44.19
55538;BME280;41383;51.418;7.286;2023-04-06T07:38:33;99918.94;;;7.26;44.36
55538;BME280;41383;51.418;7.286;2023-04-06T07:40:58;99919.94;;;7.07;44.34
55538;BME280;41383;51.418;7.286;2023-04-06T07:43:23;99927.78;;;7.21;44.78
55538;BME280;41383;51.418;7.286;2023-04-06T07:45:49;99918.34;;;7.35;44.73
55538;BME280;41383;51.418;7.286;2023-04-06T07:48:14;99926.69;;;7.46;44.42
55538;BME280;41383;51.418;7.286;2023-04-06T07:50:39;99923.59;;;7.54;44.20
55538;BME280;41383;51.418;7.286;2023-04-06T07:53:05;99924.88;;;7.64;44.39
55538;BME280;41383;51.418;7.286;2023-04-06T07:55:30;99922.25;;;7.69;44.46
55538;BME280;41383;51.418;7.286;2023-04-06T07:57:55;99919.63;;;7.74;44.63
55538;BME280;41383;51.418;7.286;2023-04-06T08:00:21;99924.16;;;7.68;44.42
55538;BME280;41383;51.418;7.286;2023-04-06T08:02:46;99917.06;;;7.67;44.77
55538;BME280;41383;51.418;7.286;2023-04-06T08:05:11;99920.09;;;7.71;44.34
55538;BME280;41383;51.418;7.286;2023-04-06T08:07:37;99920.09;;;7.71;44.62
55538;BME280;41383;51.418;7.286;2023-04-06T08:10:02;99926.91;;;7.86;44.43
55538;BME280;41383;51.418;7.286;2023-04-06T08:12:28;99927.47;;;7.88;44.95
55538;BME280;41383;51.418;7.286;2023-04-06T08:14:53;99915.00;;;7.87;44.68
55538;BME280;41383;51.418;7.286;2023-04-06T08:17:18;99913.97;;;8.05;45.15
55538;BME280;41383;51.418;7.286;2023-04-06T08:19:44;99916.09;;;8.03;44.55
55538;BME280;41383;51.418;7.286;2023-04-06T08:22:09;99909.38;;;8.23;45.02
55538;BME280;41383;51.418;7.286;2023-04-06T08:24:35;99902.81;;;8.36;44.52
55538;BME280;41383;51.418;7.286;2023-04-06T08:27:00;99920.41;;;8.50;44.49
55538;BME280;41383;51.418;7.286;2023-04-06T08:29:25;99917.88;;;8.61;44.57
55538;BME280;41383;51.418;7.286;2023-04-06T08:31:51;99914.75;;;8.69;44.50
55538;BME280;41383;51.418;7.286;2023-04-06T08:34:16;99913.34;;;8.84;44.22
55538;BME280;41383;51.418;7.286;2023-04-06T08:36:41;99901.94;;;9.04;43.39
55538;BME280;41383;51.418;7.286;2023-04-06T08:39:06;99908.44;;;9.26;43.58
55538;BME280;41383;51.418;7.286;2023-04-06T08:41:31;99912.69;;;9.39;43.44
55538;BME280;41383;51.418;7.286;2023-04-06T08:43:59;99910.81;;;9.62;42.36
55538;BME280;41383;51.418;7.286;2023-04-06T08:46:25;99914.56;;;9.83;42.26
55538;BME280;41383;51.418;7.286;2023-04-06T08:48:59;99915.22;;;9.96;41.48
55538;BME280;41383;51.418;7.286;2023-04-06T08:51:26;99902.00;;;10.04;41.83
55538;BME280;41383;51.418;7.286;2023-04-06T08:53:56;99904.53;;;10.16;41.51
55538;BME280;41383;51.418;7.286;2023-04-06T08:56:26;99901.84;;;10.22;40.87
55538;BME280;41383;51.418;7.286;2023-04-06T08:58:53;99900.81;;;10.28;40.60
55538;BME280;41383;51.418;7.286;2023-04-06T09:01:21;99894.34;;;10.34;40.54
55538;BME280;41383;51.418;7.286;2023-04-06T09:03:49;99895.47;;;10.38;40.25
55538;BME280;41383;51.418;7.286;2023-04-06T09:06:15;99899.34;;;10.48;40.12
55538;BME280;41383;51.418;7.286;2023-04-06T09:08:41;99893.50;;;10.67;40.82
55538;BME280;41383;51.418;7.286;2023-04-06T09:11:07;99902.28;;;10.74;40.54
55538;BME280;41383;51.418;7.286;2023-04-06T09:13:53;99889.75;;;10.78;40.35
55538;BME280;41383;51.418;7.286;2023-04-06T09:16:19;99894.97;;;10.80;40.14
55538;BME280;41383;51.418;7.286;2023-04-06T09:18:46;99900.16;;;10.81;40.04
55538;BME280;41383;51.418;7.286;2023-04-06T09:21:12;99894.22;;;10.90;39.51
55538;BME280;41383;51.418;7.286;2023-04-06T09:23:38;99885.56;;;11.08;39.24
55538;BME280;41383;51.418;7.286;2023-04-06T09:26:14;99881.19;;;11.02;38.34
55538;BME280;41383;51.418;7.286;2023-04-06T09:28:47;99887.59;;;10.80;38.25
55538;BME280;41383;51.418;7.286;2023-04-06T09:31:14;99887.34;;;10.82;38.38
55538;BME280;41383;51.418;7.286;2023-04-06T09:33:41;99892.53;;;10.89;38.71
55538;BME280;41383;51.418;7.286;2023-04-06T09:36:07;99890.63;;;10.84;38.13
55538;BME280;41383;51.418;7.286;2023-04-06T09:38:36;99883.59;;;10.98;38.77
55538;BME280;41383;51.418;7.286;2023-04-06T09:41:02;99877.91;;;11.00;38.50
55538;BME280;41383;51.418;7.286;2023-04-06T09:43:27;99877.34;;;11.03;39.24
55538;BME280;41383;51.418;7.286;2023-04-06T09:45:53;99879.63;;;11.22;39.43
55538;BME280;41383;51.418;7.286;2023-04-06T09:48:20;99874.41;;;11.10;39.54
55538;BME280;41383;51.418;7.286;2023-04-06T09:50:49;99877.47;;;11.29;39.32
55538;BME280;41383;51.418;7.286;2023-04-06T09:53:18;99877.00;;;11.48;39.23
55538;BME280;41383;51.418;7.286;2023-04-06T09:55:45;99875.09;;;11.49;38.88
55538;BME280;41383;51.418;7.286;2023-04-06T09:58:16;99876.44;;;11.41;38.55
55538;BME280;41383;51.418;7.286;2023-04-06T10:00:51;99875.88;;;11.49;39.37
55538;BME280;41383;51.418;7.286;2023-04-06T10:03:29;99876.44;;;11.46;38.74
55538;BME280;41383;51.418;7.286;2023-04-06T10:06:06;99881.63;;;11.48;38.64
55538;BME280;41383;51.418;7.286;2023-04-06T10:08:34;99871.53;;;11.48;39.23
55538;BME280;41383;51.418;7.286;2023-04-06T10:11:01;99872.13;;;11.66;38.84
55538;BME280;41383;51.418;7.286;2023-04-06T10:13:27;99875.69;;;11.66;38.79
55538;BME280;41383;51.418;7.286;2023-04-06T10:15:54;99868.28;;;11.56;37.62
55538;BME280;41383;51.418;7.286;2023-04-06T10:18:20;99864.19;;;11.70;38.53
55538;BME280;41383;51.418;7.286;2023-04-06T10:20:56;99857.41;;;11.88;38.26
55538;BME280;41383;51.418;7.286;2023-04-06T10:23:46;99866.97;;;11.80;38.10
55538;BME280;41383;51.418;7.286;2023-04-06T10:26:19;99870.00;;;11.89;37.57
55538;BME280;41383;51.418;7.286;2023-04-06T10:28:46;99865.91;;;11.97;37.97
55538;BME280;41383;51.418;7.286;2023-04-06T10:31:12;99865.63;;;12.09;38.05
55538;BME280;41383;51.418;7.286;2023-04-06T10:33:38;99871.41;;;12.18;37.88
55538;BME280;41383;51.418;7.286;2023-04-06T10:36:23;99862.38;;;12.33;37.23
55538;BME280;41383;51.418;7.286;2023-04-06T10:38:55;99856.38;;;12.36;37.11
55538;BME280;41383;51.418;7.286;2023-04-06T10:41:20;99856.34;;;12.41;37.42
55538;BME280;41383;51.418;7.286;2023-04-06T10:43:55;99866.72;;;12.60;37.20
55538;BME280;41383;51.418;7.286;2023-04-06T10:46:25;99862.94;;;12.51;37.04
55538;BME280;41383;51.418;7.286;2023-04-06T10:48:51;99867.25;;;12.72;37.22
55538;BME280;41383;51.418;7.286;2023-04-06T10:51:17;99855.22;;;12.73;36.84
55538;BME280;41383;51.418;7.286;2023-04-06T10:53:44;99855.78;;;12.65;34.03
55538;BME280;41383;51.418;7.286;2023-04-06T10:56:13;99854.44;;;12.42;35.14
55538;BME280;41383;51.418;7.286;2023-04-06T10:58:49;99856.06;;;12.64;36.45
55538;BME280;41383;51.418;7.286;2023-04-06T11:01:16;99850.59;;;12.53;35.90
55538;BME280;41383;51.418;7.286;2023-04-06T11:03:47;99843.22;;;12.64;35.48
55538;BME280;41383;51.418;7.286;2023-04-06T11:06:26;99847.28;;;12.72;35.30
55538;BME280;41383;51.418;7.286;2023-04-06T11:08:53;99844.25;;;12.84;36.25
55538;BME280;41383;51.418;7.286;2023-04-06T11:11:20;99844.28;;;12.79;35.66
55538;BME280;41383;51.418;7.286;2023-04-06T11:13:51;99836.59;;;12.76;35.00
55538;BME280;41383;51.418;7.286;2023-04-06T11:16:34;99847.00;;;12.79;34.41
55538;BME280;41383;51.418;7.286;2023-04-06T11:19:04;99844.75;;;12.96;34.46
55538;BME280;41383;51.418;7.286;2023-04-06T11:21:44;99839.72;;;13.25;34.97
55538;BME280;41383;51.418;7.286;2023-04-06T11:24:18;99837.44;;;13.42;34.72
55538;BME280;41383;51.418;7.286;2023-04-06T11:26:54;99842.91;;;13.48;34.24
55538;BME280;41383;51.418;7.286;2023-04-06T11:29:22;99839.53;;;13.67;34.00
55538;BME280;41383;51.418;7.286;2023-04-06T11:31:50;99835.38;;;13.74;33.46
55538;BME280;41383;51.418;7.286;2023-04-06T11:34:20;99832.06;;;13.77;33.78
55538;BME280;41383;51.418;7.286;2023-04-06T11:36:47;99835.53;;;13.88;34.17
55538;BME280;41383;51.418;7.286;2023-04-06T11:39:17;99831.38;;;13.96;34.27
55538;BME280;41383;51.418;7.286;2023-04-06T11:41:47;99832.97;;;14.03;33.82
55538;BME280;41383;51.418;7.286;2023-04-06T11:44:12;99825.44;;;14.19;34.00
55538;BME280;41383;51.418;7.286;2023-04-06T11:46:37;99821.09;;;14.12;33.88
55538;BME280;41383;51.418;7.286;2023-04-06T11:49:03;99812.41;;;14.35;34.63
55538;BME280;41383;51.418;7.286;2023-04-06T11:51:28;99820.03;;;14.08;34.24
55538;BME280;41383;51.418;7.286;2023-04-06T11:53:54;99816.16;;;13.80;34.53
55538;BME280;41383;51.418;7.286;2023-04-06T11:56:28;99823.13;;;13.61;35.48
55538;BME280;41383;51.418;7.286;2023-04-06T11:58:58;99820.47;;;13.91;35.75
55538;BME280;41383;51.418;7.286;2023-04-06T12:01:24;99822.63;;;13.54;34.95
55538;BME280;41383;51.418;7.286;2023-04-06T12:03:51;99810.88;;;13.43;35.38
55538;BME280;41383;51.418;7.286;2023-04-06T12:06:17;99821.00;;;13.42;36.15
55538;BME280;41383;51.418;7.286;2023-04-06T12:08:43;99823.69;;;13.58;36.38
55538;BME280;41383;51.418;7.286;2023-04-06T12:11:08;99817.31;;;13.68;36.50
55538;BME280;41383;51.418;7.286;2023-04-06T12:13:33;99809.94;;;13.63;35.44
55538;BME280;41383;51.418;7.286;2023-04-06T12:15:59;99806.06;;;13.75;35.54
55538;BME280;41383;51.418;7.286;2023-04-06T12:18:24;99810.28;;;13.97;35.70
55538;BME280;41383;51.418;7.286;2023-04-06T12:20:51;99802.91;;;14.22;34.93
55538;BME280;41383;51.418;7.286;2023-04-06T12:23:16;99801.09;;;14.42;34.88
55538;BME280;41383;51.418;7.286;2023-04-06T12:25:42;99797.94;;;14.29;35.55
55538;BME280;41383;51.418;7.286;2023-04-06T12:28:08;99815.13;;;14.05;36.00
55538;BME280;41383;51.418;7.286;2023-04-06T12:30:34;99809.13;;;14.03;35.86
55538;BME280;41383;51.418;7.286;2023-04-06T12:33:00;99806.91;;;14.05;36.02
55538;BME280;41383;51.418;7.286;2023-04-06T12:35:25;99806.31;;;14.14;36.33
55538;BME280;41383;51.418;7.286;2023-04-06T12:37:50;99810.38;;;14.16;36.31
55538;BME280;41383;51.418;7.286;2023-04-06T12:40:16;99808.00;;;14.04;36.70
55538;BME280;41383;51.418;7.286;2023-04-06T12:42:41;99800.69;;;13.94;36.67
55538;BME280;41383;51.418;7.286;2023-04-06T12:45:10;99812.47;;;13.95;36.54
55538;BME280;41383;51.418;7.286;2023-04-06T12:47:35;99798.97;;;13.69;36.77
55538;BME280;41383;51.418;7.286;2023-04-06T12:50:02;99796.50;;;14.02;36.75
55538;BME280;41383;51.418;7.286;2023-04-06T12:52:27;99795.41;;;14.03;36.96
55538;BME280;41383;51.418;7.286;2023-04-06T12:54:55;99794.84;;;14.06;36.91
55538;BME280;41383;51.418;7.286;2023-04-06T12:57:20;99792.59;;;14.14;36.59
55538;BME280;41383;51.418;7.286;2023-04-06T12:59:46;99792.84;;;13.82;36.13
55538;BME280;41383;51.418;7.286;2023-04-06T13:02:11;99791.66;;;13.94;36.54